createdAt,value
2023-05-25T00:02:58.284Z,2.09
2023-05-25T00:10:19.798Z,2.52
2023-05-25T00:21:21.399Z,0.00
2023-05-25T00:32:23.198Z,0.00
2023-05-25T00:43:24.878Z,0.00
2023-05-25T00:54:26.618Z,0.00
2023-05-25T01:05:28.311Z,0.00
2023-05-25T01:16:30.114Z,0.00
2023-05-25T01:27:31.761Z,0.00
2023-05-25T01:38:33.528Z,0.00
2023-05-25T01:49:35.219Z,0.00
2023-05-25T02:00:37.054Z,0.00
2023-05-25T02:11:38.680Z,0.00
2023-05-25T02:22:40.411Z,0.00
2023-05-25T02:33:42.100Z,0.00
2023-05-25T02:44:43.839Z,0.00
2023-05-25T02:55:45.863Z,0.00
2023-05-25T03:06:47.283Z,0.00
2023-05-25T03:17:48.999Z,0.00
2023-05-25T03:28:50.752Z,0.00
2023-05-25T03:39:52.432Z,0.00
2023-05-25T03:50:54.190Z,0.00
2023-05-25T04:01:55.897Z,0.00
2023-05-25T04:12:57.673Z,0.00
2023-05-25T04:23:59.328Z,0.00
2023-05-25T04:35:01.076Z,0.00
2023-05-25T04:46:02.771Z,0.00
2023-05-25T04:57:04.577Z,0.00
2023-05-25T05:08:06.217Z,0.00
2023-05-25T05:19:07.974Z,0.00
2023-05-25T05:30:09.664Z,0.00
2023-05-25T05:41:11.448Z,0.00
2023-05-25T05:52:13.160Z,0.00
2023-05-25T06:03:14.962Z,0.00
2023-05-25T06:14:16.620Z,1.93
2023-05-25T06:17:58.257Z,2.48
2023-05-25T06:21:39.823Z,2.22
2023-05-25T06:32:41.825Z,3.37
2023-05-25T06:36:23.605Z,3.90
2023-05-25T06:40:05.324Z,2.93
2023-05-25T06:51:07.028Z,0.00
2023-05-25T07:02:08.776Z,0.00
2023-05-25T07:13:10.611Z,3.61
2023-05-25T07:24:12.374Z,0.00
2023-05-25T07:27:53.945Z,5.62
2023-05-25T07:31:35.613Z,3.21
2023-05-25T07:42:37.372Z,2.28
2023-05-25T07:46:18.961Z,2.09
2023-05-25T07:50:00.539Z,2.98
2023-05-25T07:53:42.143Z,6.12
2023-05-25T07:57:23.775Z,5.16
2023-05-25T08:01:05.474Z,3.73
2023-05-25T08:04:47.128Z,3.79
2023-05-25T08:08:28.626Z,2.37
2023-05-25T08:15:51.809Z,3.59
2023-05-25T08:26:54.836Z,0.00
2023-05-25T08:30:35.112Z,2.14
2023-05-25T08:34:16.712Z,2.22
2023-05-25T08:37:58.281Z,2.58
2023-05-25T08:41:39.878Z,2.74
2023-05-25T08:45:34.130Z,2.39
2023-05-25T08:49:03.336Z,4.96
2023-05-25T08:52:44.733Z,4.18
2023-05-25T08:56:26.470Z,4.76
2023-05-25T09:00:08.207Z,4.06
2023-05-25T09:03:49.896Z,5.22
2023-05-25T09:07:31.529Z,3.17
2023-05-25T09:11:16.734Z,4.66
2023-05-25T09:14:54.880Z,3.21
2023-05-25T09:18:36.602Z,3.49
2023-05-25T09:22:18.325Z,3.55
2023-05-25T09:26:00.037Z,4.52
2023-05-25T09:29:41.760Z,5.01
2023-05-25T09:33:23.480Z,4.34
2023-05-25T09:37:06.211Z,3.89
2023-05-25T09:41:00.931Z,4.94
2023-05-25T09:44:42.648Z,3.94
2023-05-25T09:48:24.486Z,4.39
2023-05-25T09:52:06.172Z,7.34
2023-05-25T09:55:53.709Z,5.15
2023-05-25T09:59:29.834Z,7.16
2023-05-25T10:03:11.610Z,4.85
2023-05-25T10:06:53.304Z,5.62
2023-05-25T10:10:35.042Z,4.69
2023-05-25T10:14:16.961Z,5.11
2023-05-25T10:17:59.043Z,4.95
2023-05-25T10:21:40.513Z,4.17
2023-05-25T10:25:22.289Z,5.71
2023-05-25T10:29:04.131Z,5.26
2023-05-25T10:32:46.034Z,4.48
2023-05-25T10:36:27.872Z,4.85
2023-05-25T10:40:09.408Z,3.31
2023-05-25T10:43:51.105Z,5.19
2023-05-25T10:47:32.870Z,4.79
2023-05-25T10:51:14.559Z,5.02
2023-05-25T10:54:56.271Z,5.29
2023-05-25T10:58:37.944Z,3.52
2023-05-25T11:02:19.664Z,4.39
2023-05-25T11:06:01.450Z,5.49
2023-05-25T11:09:43.279Z,6.51
2023-05-25T11:13:24.982Z,4.56
2023-05-25T11:17:06.807Z,5.40
2023-05-25T11:20:48.800Z,5.35
2023-05-25T11:24:30.319Z,3.41
2023-05-25T11:28:12.252Z,5.01
2023-05-25T11:31:53.995Z,4.47
2023-05-25T11:35:35.595Z,3.39
2023-05-25T11:39:22.306Z,4.79
2023-05-25T11:42:59.134Z,3.54
2023-05-25T11:46:41.038Z,5.89
2023-05-25T11:50:22.791Z,4.60
2023-05-25T11:54:04.585Z,6.20
2023-05-25T11:57:46.384Z,5.31
2023-05-25T12:01:28.183Z,6.00
2023-05-25T12:05:11.334Z,5.07
2023-05-25T12:08:51.918Z,6.17
2023-05-25T12:12:33.782Z,5.28
2023-05-25T12:16:15.596Z,4.32
2023-05-25T12:19:57.444Z,5.46
2023-05-25T12:23:39.200Z,4.26
2023-05-25T12:27:21.008Z,4.08
2023-05-25T12:31:02.639Z,3.46
2023-05-25T12:34:44.398Z,5.10
2023-05-25T12:38:26.171Z,4.19
2023-05-25T12:42:08.062Z,6.12
2023-05-25T12:45:49.898Z,5.64
2023-05-25T12:49:31.575Z,4.10
2023-05-25T12:53:13.282Z,6.40
2023-05-25T12:56:54.906Z,3.90
2023-05-25T13:00:36.709Z,6.01
2023-05-25T13:04:18.584Z,6.95
2023-05-25T13:08:00.401Z,7.42
2023-05-25T13:11:42.346Z,6.18
2023-05-25T13:15:24.133Z,4.83
2023-05-25T13:19:05.937Z,7.70
2023-05-25T13:22:47.863Z,6.93
2023-05-25T13:26:29.558Z,6.40
2023-05-25T13:30:11.343Z,3.51
2023-05-25T13:33:53.117Z,6.50
2023-05-25T13:37:35.068Z,8.51
2023-05-25T13:41:16.998Z,6.47
2023-05-25T13:44:58.788Z,6.73
2023-05-25T13:48:40.780Z,6.40
2023-05-25T13:52:22.573Z,6.29
2023-05-25T13:56:04.507Z,7.26
2023-05-25T13:59:46.395Z,6.00
2023-05-25T14:03:28.353Z,9.22
2023-05-25T14:07:10.049Z,4.70
2023-05-25T14:10:51.769Z,3.89
2023-05-25T14:14:33.818Z,8.05
2023-05-25T14:18:15.672Z,6.90
2023-05-25T14:22:11.955Z,5.89
2023-05-25T14:25:39.412Z,6.47
2023-05-25T14:29:21.292Z,5.45
2023-05-25T14:33:03.066Z,5.31
2023-05-25T14:36:44.998Z,7.29
2023-05-25T14:40:26.815Z,4.61
2023-05-25T14:44:08.530Z,6.05
2023-05-25T14:47:55.555Z,6.31
2023-05-25T14:51:32.425Z,8.46
2023-05-25T14:55:14.216Z,6.09
2023-05-25T14:58:56.076Z,7.08
2023-05-25T15:02:37.988Z,5.81
2023-05-25T15:06:19.755Z,3.97
2023-05-25T15:10:01.623Z,5.28
2023-05-25T15:13:43.492Z,5.51
2023-05-25T15:17:25.367Z,5.58
2023-05-25T15:21:07.136Z,5.02
2023-05-25T15:24:48.860Z,4.85
2023-05-25T15:28:30.662Z,5.21
2023-05-25T15:32:12.525Z,4.05
2023-05-25T15:35:54.229Z,5.51
2023-05-25T15:39:36.078Z,5.23
2023-05-25T15:43:17.876Z,5.30
2023-05-25T15:46:59.536Z,3.73
2023-05-25T15:50:41.322Z,3.91
2023-05-25T15:54:23.019Z,5.08
2023-05-25T15:58:04.835Z,4.08
2023-05-25T16:01:46.776Z,6.06
2023-05-25T16:05:28.485Z,4.24
2023-05-25T16:09:10.384Z,5.57
2023-05-25T16:12:52.173Z,4.51
2023-05-25T16:16:33.985Z,3.80
2023-05-25T16:20:15.819Z,5.34
2023-05-25T16:23:58.531Z,4.02
2023-05-25T16:27:40.416Z,3.24
2023-05-25T16:31:22.165Z,4.36
2023-05-25T16:35:03.949Z,4.50
2023-05-25T16:38:45.794Z,5.27
2023-05-25T16:42:27.469Z,4.32
2023-05-25T16:46:09.235Z,3.90
2023-05-25T16:49:50.880Z,2.79
2023-05-25T16:53:32.598Z,3.75
2023-05-25T16:57:14.239Z,3.25
2023-05-25T17:00:55.891Z,5.05
2023-05-25T17:04:37.506Z,2.29
2023-05-25T17:08:19.221Z,3.80
2023-05-25T17:12:00.935Z,3.62
2023-05-25T17:15:42.974Z,3.55
2023-05-25T17:19:24.419Z,2.93
2023-05-25T17:23:06.112Z,3.28
2023-05-25T17:26:47.685Z,2.48
2023-05-25T17:30:29.308Z,2.84
2023-05-25T17:34:10.925Z,3.29
2023-05-25T17:41:32.677Z,2.48
2023-05-25T17:45:14.212Z,2.32
2023-05-25T17:48:55.841Z,5.30
2023-05-25T17:52:37.684Z,3.83
2023-05-25T17:56:19.375Z,3.54
2023-05-25T18:00:01.191Z,4.75
2023-05-25T18:11:03.054Z,2.93
2023-05-25T18:14:44.982Z,2.80
2023-05-25T18:18:26.873Z,2.61
2023-05-25T18:29:28.714Z,0.00
2023-05-25T18:40:30.473Z,0.00
2023-05-25T18:51:32.152Z,2.71
2023-05-25T19:02:33.968Z,0.00
2023-05-25T19:06:15.481Z,1.83
2023-05-25T19:17:17.209Z,0.00
2023-05-25T19:28:18.965Z,0.00
2023-05-25T19:39:20.727Z,0.00
2023-05-25T19:50:22.540Z,0.00
2023-05-25T20:01:24.374Z,0.00
2023-05-25T20:12:26.149Z,0.00
2023-05-25T20:23:27.872Z,0.00
2023-05-25T20:34:29.631Z,0.00
2023-05-25T20:45:31.327Z,0.00
2023-05-25T20:56:33.068Z,0.00
2023-05-25T21:07:34.783Z,0.00
2023-05-25T21:18:36.536Z,0.00
2023-05-25T21:29:38.259Z,0.00
2023-05-25T21:40:40.001Z,0.00
2023-05-25T21:51:41.698Z,0.00
2023-05-25T22:02:44.519Z,0.00
2023-05-25T22:13:48.208Z,0.00
2023-05-25T22:24:49.972Z,0.00
2023-05-25T22:35:51.722Z,0.00
2023-05-25T22:46:53.577Z,0.00
2023-05-25T22:57:55.168Z,0.00
2023-05-25T23:08:56.920Z,0.00
2023-05-25T23:19:58.676Z,0.00
2023-05-25T23:31:00.398Z,0.00
2023-05-25T23:42:02.097Z,0.00
2023-05-25T23:53:03.844Z,0.00
